sensor_id;sensor_type;location;lat;lon;timestamp;P1;durP1;ratioP1;P2;durP2;ratioP2
20865;SDS011;10593;48.398;10.698;2022-07-30T00:02:17;2.40;;;2.20;;
20865;SDS011;10593;48.398;10.698;2022-07-30T00:04:43;2.20;;;2.10;;
20865;SDS011;10593;48.398;10.698;2022-07-30T00:07:10;2.10;;;2.00;;
20865;SDS011;10593;48.398;10.698;2022-07-30T00:09:36;2.40;;;2.30;;
20865;SDS011;10593;48.398;10.698;2022-07-30T00:12:02;2.43;;;2.13;;
20865;SDS011;10593;48.398;10.698;2022-07-30T00:14:29;2.33;;;2.13;;
20865;SDS011;10593;48.398;10.698;2022-07-30T00:16:56;2.30;;;2.20;;
20865;SDS011;10593;48.398;10.698;2022-07-30T00:19:22;2.30;;;2.20;;
20865;SDS011;10593;48.398;10.698;2022-07-30T00:21:47;2.30;;;2.20;;
20865;SDS011;10593;48.398;10.698;2022-07-30T00:24:13;2.80;;;2.60;;
20865;SDS011;10593;48.398;10.698;2022-07-30T00:26:39;2.60;;;2.40;;
20865;SDS011;10593;48.398;10.698;2022-07-30T00:29:04;2.10;;;2.00;;
20865;SDS011;10593;48.398;10.698;2022-07-30T00:31:31;2.20;;;2.10;;
20865;SDS011;10593;48.398;10.698;2022-07-30T00:33:57;2.40;;;2.20;;
20865;SDS011;10593;48.398;10.698;2022-07-30T00:36:23;2.30;;;2.10;;
20865;SDS011;10593;48.398;10.698;2022-07-30T00:38:48;2.60;;;2.10;;
20865;SDS011;10593;48.398;10.698;2022-07-30T00:41:14;2.30;;;2.20;;
20865;SDS011;10593;48.398;10.698;2022-07-30T00:43:40;2.10;;;2.00;;
20865;SDS011;10593;48.398;10.698;2022-07-30T00:46:06;2.00;;;1.90;;
20865;SDS011;10593;48.398;10.698;2022-07-30T00:48:31;2.40;;;2.30;;
20865;SDS011;10593;48.398;10.698;2022-07-30T00:50:57;2.90;;;1.90;;
20865;SDS011;10593;48.398;10.698;2022-07-30T00:53:23;1.80;;;1.70;;
20865;SDS011;10593;48.398;10.698;2022-07-30T00:55:48;2.40;;;2.10;;
20865;SDS011;10593;48.398;10.698;2022-07-30T00:58:14;2.10;;;1.90;;
20865;SDS011;10593;48.398;10.698;2022-07-30T01:00:40;2.43;;;1.90;;
20865;SDS011;10593;48.398;10.698;2022-07-30T01:03:05;1.90;;;1.80;;
20865;SDS011;10593;48.398;10.698;2022-07-30T01:05:31;1.90;;;1.80;;
20865;SDS011;10593;48.398;10.698;2022-07-30T01:07:57;2.20;;;2.10;;
20865;SDS011;10593;48.398;10.698;2022-07-30T01:10:23;1.90;;;1.80;;
20865;SDS011;10593;48.398;10.698;2022-07-30T01:12:49;2.10;;;2.00;;
20865;SDS011;10593;48.398;10.698;2022-07-30T01:15:17;1.97;;;1.87;;
20865;SDS011;10593;48.398;10.698;2022-07-30T01:17:43;2.10;;;2.00;;
20865;SDS011;10593;48.398;10.698;2022-07-30T01:20:15;2.93;;;1.70;;
20865;SDS011;10593;48.398;10.698;2022-07-30T01:28:22;1.77;;;1.67;;
20865;SDS011;10593;48.398;10.698;2022-07-30T01:30:56;2.20;;;1.90;;
20865;SDS011;10593;48.398;10.698;2022-07-30T01:33:24;2.03;;;1.93;;
20865;SDS011;10593;48.398;10.698;2022-07-30T01:35:52;1.93;;;1.80;;
20865;SDS011;10593;48.398;10.698;2022-07-30T01:38:21;1.90;;;1.80;;
20865;SDS011;10593;48.398;10.698;2022-07-30T01:40:51;1.83;;;1.73;;
20865;SDS011;10593;48.398;10.698;2022-07-30T01:43:20;1.80;;;1.70;;
20865;SDS011;10593;48.398;10.698;2022-07-30T01:45:49;2.03;;;1.93;;
20865;SDS011;10593;48.398;10.698;2022-07-30T01:48:19;2.00;;;1.90;;
20865;SDS011;10593;48.398;10.698;2022-07-30T01:50:49;2.20;;;2.10;;
20865;SDS011;10593;48.398;10.698;2022-07-30T01:53:23;2.00;;;1.90;;
20865;SDS011;10593;48.398;10.698;2022-07-30T01:55:52;2.10;;;2.00;;
20865;SDS011;10593;48.398;10.698;2022-07-30T01:58:20;2.00;;;1.83;;
20865;SDS011;10593;48.398;10.698;2022-07-30T02:00:51;2.40;;;2.07;;
20865;SDS011;10593;48.398;10.698;2022-07-30T02:03:22;1.97;;;1.87;;
20865;SDS011;10593;48.398;10.698;2022-07-30T02:05:53;2.00;;;1.90;;
20865;SDS011;10593;48.398;10.698;2022-07-30T02:08:35;2.43;;;2.23;;
20865;SDS011;10593;48.398;10.698;2022-07-30T02:11:11;1.97;;;1.87;;
20865;SDS011;10593;48.398;10.698;2022-07-30T02:14:00;1.90;;;1.80;;
20865;SDS011;10593;48.398;10.698;2022-07-30T02:16:35;2.33;;;2.00;;
20865;SDS011;10593;48.398;10.698;2022-07-30T02:19:10;2.13;;;2.03;;
20865;SDS011;10593;48.398;10.698;2022-07-30T02:21:48;1.90;;;1.80;;
20865;SDS011;10593;48.398;10.698;2022-07-30T02:24:25;2.10;;;2.00;;
20865;SDS011;10593;48.398;10.698;2022-07-30T02:26:55;2.13;;;1.93;;
20865;SDS011;10593;48.398;10.698;2022-07-30T02:29:29;3.07;;;2.10;;
20865;SDS011;10593;48.398;10.698;2022-07-30T02:31:58;3.07;;;2.30;;
20865;SDS011;10593;48.398;10.698;2022-07-30T02:34:27;2.40;;;2.20;;
20865;SDS011;10593;48.398;10.698;2022-07-30T02:36:58;2.60;;;2.23;;
20865;SDS011;10593;48.398;10.698;2022-07-30T02:39:27;2.20;;;2.00;;
20865;SDS011;10593;48.398;10.698;2022-07-30T02:41:55;2.00;;;1.90;;
20865;SDS011;10593;48.398;10.698;2022-07-30T02:44:23;2.20;;;2.10;;
20865;SDS011;10593;48.398;10.698;2022-07-30T02:46:53;2.60;;;2.40;;
20865;SDS011;10593;48.398;10.698;2022-07-30T02:49:21;2.47;;;2.30;;
20865;SDS011;10593;48.398;10.698;2022-07-30T02:51:50;2.13;;;2.03;;
20865;SDS011;10593;48.398;10.698;2022-07-30T02:54:17;2.00;;;1.90;;
20865;SDS011;10593;48.398;10.698;2022-07-30T02:56:45;2.03;;;1.93;;
20865;SDS011;10593;48.398;10.698;2022-07-30T02:59:14;2.23;;;2.03;;
20865;SDS011;10593;48.398;10.698;2022-07-30T03:01:43;2.20;;;2.10;;
20865;SDS011;10593;48.398;10.698;2022-07-30T03:04:12;2.80;;;2.00;;
20865;SDS011;10593;48.398;10.698;2022-07-30T03:06:39;2.17;;;2.00;;
20865;SDS011;10593;48.398;10.698;2022-07-30T03:09:08;2.73;;;1.90;;
20865;SDS011;10593;48.398;10.698;2022-07-30T03:11:35;2.13;;;2.03;;
20865;SDS011;10593;48.398;10.698;2022-07-30T03:14:02;2.67;;;2.47;;
20865;SDS011;10593;48.398;10.698;2022-07-30T03:16:28;2.00;;;1.90;;
20865;SDS011;10593;48.398;10.698;2022-07-30T03:19:00;2.23;;;2.07;;
20865;SDS011;10593;48.398;10.698;2022-07-30T03:21:28;2.43;;;2.23;;
20865;SDS011;10593;48.398;10.698;2022-07-30T03:24:00;2.50;;;2.30;;
20865;SDS011;10593;48.398;10.698;2022-07-30T03:26:27;2.43;;;2.30;;
20865;SDS011;10593;48.398;10.698;2022-07-30T03:28:54;2.37;;;2.27;;
20865;SDS011;10593;48.398;10.698;2022-07-30T03:31:21;2.47;;;2.27;;
20865;SDS011;10593;48.398;10.698;2022-07-30T03:33:47;1.73;;;1.63;;
20865;SDS011;10593;48.398;10.698;2022-07-30T03:36:14;2.10;;;2.00;;
20865;SDS011;10593;48.398;10.698;2022-07-30T03:38:41;1.97;;;1.87;;
20865;SDS011;10593;48.398;10.698;2022-07-30T03:41:09;2.80;;;1.80;;
20865;SDS011;10593;48.398;10.698;2022-07-30T03:43:36;2.20;;;2.00;;
20865;SDS011;10593;48.398;10.698;2022-07-30T03:46:03;2.13;;;2.03;;
20865;SDS011;10593;48.398;10.698;2022-07-30T03:48:32;2.40;;;2.20;;
20865;SDS011;10593;48.398;10.698;2022-07-30T03:51:00;2.10;;;2.00;;
20865;SDS011;10593;48.398;10.698;2022-07-30T03:53:28;2.23;;;2.13;;
20865;SDS011;10593;48.398;10.698;2022-07-30T03:55:53;2.27;;;2.03;;
20865;SDS011;10593;48.398;10.698;2022-07-30T03:58:20;2.20;;;2.10;;
20865;SDS011;10593;48.398;10.698;2022-07-30T04:00:47;2.37;;;2.23;;
20865;SDS011;10593;48.398;10.698;2022-07-30T04:03:27;2.23;;;2.13;;
20865;SDS011;10593;48.398;10.698;2022-07-30T04:05:55;2.47;;;2.03;;
20865;SDS011;10593;48.398;10.698;2022-07-30T04:08:22;2.40;;;2.20;;
20865;SDS011;10593;48.398;10.698;2022-07-30T04:10:48;2.43;;;2.23;;
20865;SDS011;10593;48.398;10.698;2022-07-30T04:13:15;3.67;;;2.73;;
20865;SDS011;10593;48.398;10.698;2022-07-30T04:15:50;2.50;;;1.90;;
20865;SDS011;10593;48.398;10.698;2022-07-30T04:18:43;2.50;;;2.33;;
20865;SDS011;10593;48.398;10.698;2022-07-30T04:21:14;2.30;;;2.10;;
20865;SDS011;10593;48.398;10.698;2022-07-30T04:23:42;2.33;;;1.90;;
20865;SDS011;10593;48.398;10.698;2022-07-30T04:26:11;3.17;;;2.20;;
20865;SDS011;10593;48.398;10.698;2022-07-30T04:28:38;3.30;;;2.10;;
20865;SDS011;10593;48.398;10.698;2022-07-30T04:31:04;2.57;;;2.37;;
20865;SDS011;10593;48.398;10.698;2022-07-30T04:33:30;2.97;;;2.57;;
20865;SDS011;10593;48.398;10.698;2022-07-30T04:35:56;2.53;;;2.20;;
20865;SDS011;10593;48.398;10.698;2022-07-30T04:38:22;2.27;;;2.17;;
20865;SDS011;10593;48.398;10.698;2022-07-30T04:40:48;2.57;;;2.37;;
20865;SDS011;10593;48.398;10.698;2022-07-30T04:43:14;3.10;;;2.50;;
20865;SDS011;10593;48.398;10.698;2022-07-30T04:45:40;2.50;;;2.30;;
20865;SDS011;10593;48.398;10.698;2022-07-30T04:48:06;2.93;;;2.50;;
20865;SDS011;10593;48.398;10.698;2022-07-30T04:50:33;2.93;;;2.30;;
20865;SDS011;10593;48.398;10.698;2022-07-30T04:53:04;2.30;;;2.17;;
20865;SDS011;10593;48.398;10.698;2022-07-30T04:55:31;2.40;;;2.30;;
20865;SDS011;10593;48.398;10.698;2022-07-30T04:57:59;2.33;;;2.03;;
20865;SDS011;10593;48.398;10.698;2022-07-30T05:00:27;2.30;;;2.20;;
20865;SDS011;10593;48.398;10.698;2022-07-30T05:02:53;2.50;;;2.30;;
20865;SDS011;10593;48.398;10.698;2022-07-30T05:05:21;2.20;;;2.07;;
20865;SDS011;10593;48.398;10.698;2022-07-30T05:07:49;2.57;;;2.37;;
20865;SDS011;10593;48.398;10.698;2022-07-30T05:10:16;2.97;;;2.53;;
20865;SDS011;10593;48.398;10.698;2022-07-30T05:12:43;2.97;;;2.77;;
20865;SDS011;10593;48.398;10.698;2022-07-30T05:15:08;2.40;;;2.30;;
20865;SDS011;10593;48.398;10.698;2022-07-30T05:17:35;2.47;;;2.27;;
20865;SDS011;10593;48.398;10.698;2022-07-30T05:20:02;2.83;;;2.50;;
20865;SDS011;10593;48.398;10.698;2022-07-30T05:22:29;2.60;;;2.40;;
20865;SDS011;10593;48.398;10.698;2022-07-30T05:24:55;2.90;;;2.70;;
20865;SDS011;10593;48.398;10.698;2022-07-30T05:27:21;2.67;;;2.47;;
20865;SDS011;10593;48.398;10.698;2022-07-30T05:29:47;3.10;;;2.80;;
20865;SDS011;10593;48.398;10.698;2022-07-30T05:32:13;2.20;;;2.10;;
20865;SDS011;10593;48.398;10.698;2022-07-30T05:34:39;2.60;;;2.40;;
20865;SDS011;10593;48.398;10.698;2022-07-30T05:37:04;2.60;;;2.27;;
20865;SDS011;10593;48.398;10.698;2022-07-30T05:39:30;2.57;;;2.37;;
20865;SDS011;10593;48.398;10.698;2022-07-30T05:41:56;2.40;;;2.20;;
20865;SDS011;10593;48.398;10.698;2022-07-30T05:44:22;3.33;;;2.53;;
20865;SDS011;10593;48.398;10.698;2022-07-30T05:46:47;3.00;;;2.80;;
20865;SDS011;10593;48.398;10.698;2022-07-30T05:49:13;2.50;;;2.30;;
20865;SDS011;10593;48.398;10.698;2022-07-30T05:51:39;2.67;;;2.47;;
20865;SDS011;10593;48.398;10.698;2022-07-30T05:54:06;2.57;;;2.40;;
20865;SDS011;10593;48.398;10.698;2022-07-30T05:56:32;2.77;;;2.57;;
20865;SDS011;10593;48.398;10.698;2022-07-30T05:58:57;3.20;;;2.47;;
20865;SDS011;10593;48.398;10.698;2022-07-30T06:01:23;3.03;;;2.37;;
20865;SDS011;10593;48.398;10.698;2022-07-30T06:03:49;2.80;;;2.60;;
20865;SDS011;10593;48.398;10.698;2022-07-30T06:06:15;2.80;;;2.60;;
20865;SDS011;10593;48.398;10.698;2022-07-30T06:08:40;2.53;;;2.33;;
20865;SDS011;10593;48.398;10.698;2022-07-30T06:11:06;3.00;;;2.80;;
20865;SDS011;10593;48.398;10.698;2022-07-30T06:13:34;2.57;;;2.47;;
20865;SDS011;10593;48.398;10.698;2022-07-30T06:16:02;2.87;;;2.60;;
20865;SDS011;10593;48.398;10.698;2022-07-30T06:18:28;2.50;;;2.40;;
20865;SDS011;10593;48.398;10.698;2022-07-30T06:20:53;3.13;;;2.83;;
20865;SDS011;10593;48.398;10.698;2022-07-30T06:23:20;2.93;;;2.73;;
20865;SDS011;10593;48.398;10.698;2022-07-30T06:25:47;2.90;;;2.57;;
20865;SDS011;10593;48.398;10.698;2022-07-30T06:28:15;2.90;;;2.70;;
20865;SDS011;10593;48.398;10.698;2022-07-30T06:30:42;2.80;;;2.60;;
20865;SDS011;10593;48.398;10.698;2022-07-30T06:33:12;3.37;;;2.97;;
20865;SDS011;10593;48.398;10.698;2022-07-30T06:35:40;3.30;;;2.80;;
20865;SDS011;10593;48.398;10.698;2022-07-30T06:38:06;3.40;;;3.10;;
20865;SDS011;10593;48.398;10.698;2022-07-30T06:40:32;6.37;;;3.57;;
20865;SDS011;10593;48.398;10.698;2022-07-30T06:42:57;3.70;;;3.40;;
20865;SDS011;10593;48.398;10.698;2022-07-30T06:45:23;3.77;;;3.47;;
20865;SDS011;10593;48.398;10.698;2022-07-30T06:47:49;3.63;;;3.33;;
20865;SDS011;10593;48.398;10.698;2022-07-30T06:50:15;4.10;;;3.73;;
20865;SDS011;10593;48.398;10.698;2022-07-30T06:52:42;3.77;;;3.43;;
20865;SDS011;10593;48.398;10.698;2022-07-30T06:55:08;3.00;;;2.80;;
20865;SDS011;10593;48.398;10.698;2022-07-30T06:57:34;3.70;;;3.40;;
20865;SDS011;10593;48.398;10.698;2022-07-30T07:00:00;6.00;;;3.53;;
20865;SDS011;10593;48.398;10.698;2022-07-30T07:02:25;3.50;;;3.30;;
20865;SDS011;10593;48.398;10.698;2022-07-30T07:04:51;3.73;;;3.43;;
20865;SDS011;10593;48.398;10.698;2022-07-30T07:07:17;3.80;;;3.30;;
20865;SDS011;10593;48.398;10.698;2022-07-30T07:09:42;4.33;;;3.10;;
20865;SDS011;10593;48.398;10.698;2022-07-30T07:12:09;3.50;;;2.97;;
20865;SDS011;10593;48.398;10.698;2022-07-30T07:14:34;3.63;;;3.33;;
20865;SDS011;10593;48.398;10.698;2022-07-30T07:17:00;3.80;;;3.50;;
20865;SDS011;10593;48.398;10.698;2022-07-30T07:19:26;3.57;;;3.27;;
20865;SDS011;10593;48.398;10.698;2022-07-30T07:21:52;3.57;;;3.27;;
20865;SDS011;10593;48.398;10.698;2022-07-30T07:24:17;3.60;;;3.30;;
20865;SDS011;10593;48.398;10.698;2022-07-30T07:26:43;3.77;;;3.47;;
20865;SDS011;10593;48.398;10.698;2022-07-30T07:29:09;4.83;;;3.27;;
20865;SDS011;10593;48.398;10.698;2022-07-30T07:31:35;3.83;;;3.43;;
20865;SDS011;10593;48.398;10.698;2022-07-30T07:34:01;4.17;;;2.77;;
20865;SDS011;10593;48.398;10.698;2022-07-30T07:36:27;3.80;;;3.40;;
20865;SDS011;10593;48.398;10.698;2022-07-30T07:38:52;3.17;;;2.90;;
20865;SDS011;10593;48.398;10.698;2022-07-30T07:41:18;3.33;;;3.03;;
20865;SDS011;10593;48.398;10.698;2022-07-30T07:43:44;6.03;;;3.57;;
20865;SDS011;10593;48.398;10.698;2022-07-30T07:46:09;5.67;;;2.90;;
20865;SDS011;10593;48.398;10.698;2022-07-30T07:48:40;3.03;;;2.83;;
20865;SDS011;10593;48.398;10.698;2022-07-30T07:51:07;3.67;;;3.00;;
20865;SDS011;10593;48.398;10.698;2022-07-30T07:53:33;3.10;;;2.90;;
20865;SDS011;10593;48.398;10.698;2022-07-30T07:55:58;7.87;;;3.20;;
20865;SDS011;10593;48.398;10.698;2022-07-30T07:58:24;3.33;;;2.70;;
20865;SDS011;10593;48.398;10.698;2022-07-30T08:00:50;5.67;;;2.90;;
20865;SDS011;10593;48.398;10.698;2022-07-30T08:03:16;3.00;;;2.70;;
20865;SDS011;10593;48.398;10.698;2022-07-30T08:05:42;2.83;;;2.60;;
20865;SDS011;10593;48.398;10.698;2022-07-30T08:08:07;5.00;;;3.30;;
20865;SDS011;10593;48.398;10.698;2022-07-30T08:10:33;3.90;;;3.03;;
20865;SDS011;10593;48.398;10.698;2022-07-30T08:12:58;4.10;;;3.10;;
20865;SDS011;10593;48.398;10.698;2022-07-30T08:15:26;2.97;;;2.70;;
20865;SDS011;10593;48.398;10.698;2022-07-30T08:17:52;3.43;;;3.10;;
20865;SDS011;10593;48.398;10.698;2022-07-30T08:20:17;2.97;;;2.77;;
20865;SDS011;10593;48.398;10.698;2022-07-30T08:22:43;3.33;;;3.03;;
20865;SDS011;10593;48.398;10.698;2022-07-30T08:25:09;10.27;;;3.57;;
20865;SDS011;10593;48.398;10.698;2022-07-30T08:27:36;3.43;;;2.90;;
20865;SDS011;10593;48.398;10.698;2022-07-30T08:30:05;3.43;;;2.90;;
20865;SDS011;10593;48.398;10.698;2022-07-30T08:32:33;3.60;;;3.10;;
20865;SDS011;10593;48.398;10.698;2022-07-30T08:34:59;4.93;;;3.20;;
20865;SDS011;10593;48.398;10.698;2022-07-30T08:37:26;3.33;;;3.03;;
20865;SDS011;10593;48.398;10.698;2022-07-30T08:39:52;4.03;;;2.77;;
20865;SDS011;10593;48.398;10.698;2022-07-30T08:42:17;3.03;;;2.80;;
20865;SDS011;10593;48.398;10.698;2022-07-30T08:44:44;2.70;;;2.50;;
20865;SDS011;10593;48.398;10.698;2022-07-30T08:47:10;3.53;;;2.20;;
20865;SDS011;10593;48.398;10.698;2022-07-30T08:49:46;2.57;;;2.17;;
20865;SDS011;10593;48.398;10.698;2022-07-30T08:52:12;2.60;;;2.40;;
20865;SDS011;10593;48.398;10.698;2022-07-30T08:54:39;3.70;;;2.20;;
20865;SDS011;10593;48.398;10.698;2022-07-30T08:57:05;3.57;;;2.30;;
20865;SDS011;10593;48.398;10.698;2022-07-30T08:59:31;2.40;;;2.13;;
20865;SDS011;10593;48.398;10.698;2022-07-30T09:01:58;3.10;;;2.30;;
20865;SDS011;10593;48.398;10.698;2022-07-30T09:04:24;3.47;;;1.80;;
20865;SDS011;10593;48.398;10.698;2022-07-30T09:06:50;2.40;;;2.20;;
20865;SDS011;10593;48.398;10.698;2022-07-30T09:09:15;3.00;;;2.00;;
20865;SDS011;10593;48.398;10.698;2022-07-30T09:11:41;2.80;;;2.13;;
20865;SDS011;10593;48.398;10.698;2022-07-30T09:14:11;2.17;;;1.97;;
20865;SDS011;10593;48.398;10.698;2022-07-30T09:16:39;2.20;;;2.00;;
20865;SDS011;10593;48.398;10.698;2022-07-30T09:19:18;4.77;;;2.33;;
20865;SDS011;10593;48.398;10.698;2022-07-30T09:21:55;2.00;;;1.80;;
20865;SDS011;10593;48.398;10.698;2022-07-30T09:24:25;1.97;;;1.80;;
20865;SDS011;10593;48.398;10.698;2022-07-30T09:26:56;2.13;;;2.03;;
20865;SDS011;10593;48.398;10.698;2022-07-30T09:29:28;1.83;;;1.70;;
20865;SDS011;10593;48.398;10.698;2022-07-30T09:31:56;2.57;;;2.00;;
20865;SDS011;10593;48.398;10.698;2022-07-30T09:34:30;2.20;;;1.90;;
20865;SDS011;10593;48.398;10.698;2022-07-30T09:36:59;2.10;;;1.90;;
20865;SDS011;10593;48.398;10.698;2022-07-30T09:39:35;2.43;;;2.03;;
20865;SDS011;10593;48.398;10.698;2022-07-30T09:42:03;1.87;;;1.77;;
20865;SDS011;10593;48.398;10.698;2022-07-30T09:44:46;1.70;;;1.50;;
20865;SDS011;10593;48.398;10.698;2022-07-30T09:47:35;3.70;;;1.70;;
20865;SDS011;10593;48.398;10.698;2022-07-30T09:50:08;2.27;;;1.70;;
20865;SDS011;10593;48.398;10.698;2022-07-30T09:52:40;1.53;;;1.43;;
20865;SDS011;10593;48.398;10.698;2022-07-30T09:55:08;2.83;;;1.70;;
20865;SDS011;10593;48.398;10.698;2022-07-30T09:57:35;1.80;;;1.70;;
20865;SDS011;10593;48.398;10.698;2022-07-30T10:00:30;2.30;;;1.70;;
20865;SDS011;10593;48.398;10.698;2022-07-30T10:02:59;2.40;;;1.63;;
20865;SDS011;10593;48.398;10.698;2022-07-30T10:05:27;2.00;;;1.90;;
20865;SDS011;10593;48.398;10.698;2022-07-30T10:07:57;2.27;;;1.77;;
20865;SDS011;10593;48.398;10.698;2022-07-30T10:10:27;2.17;;;1.90;;
20865;SDS011;10593;48.398;10.698;2022-07-30T10:12:58;1.80;;;1.50;;
20865;SDS011;10593;48.398;10.698;2022-07-30T10:15:30;2.33;;;1.53;;
20865;SDS011;10593;48.398;10.698;2022-07-30T10:17:59;1.63;;;1.40;;
20865;SDS011;10593;48.398;10.698;2022-07-30T10:20:27;1.40;;;1.30;;
20865;SDS011;10593;48.398;10.698;2022-07-30T10:22:53;1.63;;;1.53;;
20865;SDS011;10593;48.398;10.698;2022-07-30T10:25:19;1.47;;;1.37;;
20865;SDS011;10593;48.398;10.698;2022-07-30T10:27:47;2.07;;;1.27;;
20865;SDS011;10593;48.398;10.698;2022-07-30T10:30:14;1.60;;;1.50;;
20865;SDS011;10593;48.398;10.698;2022-07-30T10:32:41;1.37;;;1.27;;
20865;SDS011;10593;48.398;10.698;2022-07-30T10:35:09;1.47;;;1.37;;
20865;SDS011;10593;48.398;10.698;2022-07-30T10:37:37;1.20;;;1.20;;
20865;SDS011;10593;48.398;10.698;2022-07-30T10:43:23;1.37;;;1.27;;
20865;SDS011;10593;48.398;10.698;2022-07-30T10:46:22;1.33;;;1.23;;
20865;SDS011;10593;48.398;10.698;2022-07-30T10:49:16;1.50;;;1.30;;
20865;SDS011;10593;48.398;10.698;2022-07-30T10:51:48;2.23;;;1.20;;
20865;SDS011;10593;48.398;10.698;2022-07-30T10:54:35;1.50;;;1.40;;
20865;SDS011;10593;48.398;10.698;2022-07-30T11:02:20;2.83;;;1.53;;
20865;SDS011;10593;48.398;10.698;2022-07-30T11:04:47;2.20;;;1.50;;
20865;SDS011;10593;48.398;10.698;2022-07-30T11:09:46;1.50;;;1.40;;
20865;SDS011;10593;48.398;10.698;2022-07-30T11:15:12;1.40;;;1.30;;
20865;SDS011;10593;48.398;10.698;2022-07-30T11:20:26;2.53;;;1.90;;
20865;SDS011;10593;48.398;10.698;2022-07-30T11:22:54;1.93;;;1.40;;
20865;SDS011;10593;48.398;10.698;2022-07-30T11:26:02;1.40;;;1.17;;
20865;SDS011;10593;48.398;10.698;2022-07-30T11:28:35;1.53;;;1.40;;
20865;SDS011;10593;48.398;10.698;2022-07-30T11:43:13;1.40;;;1.30;;
20865;SDS011;10593;48.398;10.698;2022-07-30T11:47:43;1.90;;;1.30;;
20865;SDS011;10593;48.398;10.698;2022-07-30T11:50:17;1.30;;;1.30;;
20865;SDS011;10593;48.398;10.698;2022-07-30T11:55:31;1.67;;;1.10;;
20865;SDS011;10593;48.398;10.698;2022-07-30T11:58:08;1.53;;;1.43;;
20865;SDS011;10593;48.398;10.698;2022-07-30T12:00:46;1.13;;;1.10;;
20865;SDS011;10593;48.398;10.698;2022-07-30T12:03:14;4.60;;;1.70;;
20865;SDS011;10593;48.398;10.698;2022-07-30T12:05:43;1.60;;;1.50;;
20865;SDS011;10593;48.398;10.698;2022-07-30T12:08:11;1.60;;;1.50;;
20865;SDS011;10593;48.398;10.698;2022-07-30T12:10:38;1.70;;;1.60;;
20865;SDS011;10593;48.398;10.698;2022-07-30T12:13:14;1.60;;;1.30;;
20865;SDS011;10593;48.398;10.698;2022-07-30T12:15:49;1.57;;;1.47;;
20865;SDS011;10593;48.398;10.698;2022-07-30T12:18:25;1.40;;;1.30;;
20865;SDS011;10593;48.398;10.698;2022-07-30T12:20:54;1.50;;;1.40;;
20865;SDS011;10593;48.398;10.698;2022-07-30T12:23:34;1.40;;;1.30;;
20865;SDS011;10593;48.398;10.698;2022-07-30T12:26:00;1.47;;;1.43;;
20865;SDS011;10593;48.398;10.698;2022-07-30T12:28:30;2.00;;;1.47;;
20865;SDS011;10593;48.398;10.698;2022-07-30T12:30:59;2.20;;;1.63;;
20865;SDS011;10593;48.398;10.698;2022-07-30T12:33:28;2.00;;;1.30;;
20865;SDS011;10593;48.398;10.698;2022-07-30T12:35:55;1.47;;;1.37;;
20865;SDS011;10593;48.398;10.698;2022-07-30T12:38:25;1.80;;;1.40;;
20865;SDS011;10593;48.398;10.698;2022-07-30T12:46:25;1.50;;;1.37;;
20865;SDS011;10593;48.398;10.698;2022-07-30T12:48:56;2.20;;;1.40;;
20865;SDS011;10593;48.398;10.698;2022-07-30T12:51:31;2.17;;;1.40;;
20865;SDS011;10593;48.398;10.698;2022-07-30T12:54:01;5.37;;;1.83;;
20865;SDS011;10593;48.398;10.698;2022-07-30T12:56:41;1.33;;;1.23;;
20865;SDS011;10593;48.398;10.698;2022-07-30T12:59:25;1.30;;;1.20;;
20865;SDS011;10593;48.398;10.698;2022-07-30T13:01:51;2.90;;;1.60;;
20865;SDS011;10593;48.398;10.698;2022-07-30T13:04:18;1.43;;;1.27;;
20865;SDS011;10593;48.398;10.698;2022-07-30T13:07:01;1.20;;;1.10;;
20865;SDS011;10593;48.398;10.698;2022-07-30T13:09:32;1.10;;;1.00;;
20865;SDS011;10593;48.398;10.698;2022-07-30T13:11:59;1.93;;;1.30;;
20865;SDS011;10593;48.398;10.698;2022-07-30T13:14:24;2.63;;;1.20;;
20865;SDS011;10593;48.398;10.698;2022-07-30T13:16:51;2.43;;;1.30;;
20865;SDS011;10593;48.398;10.698;2022-07-30T13:19:20;2.17;;;1.27;;
20865;SDS011;10593;48.398;10.698;2022-07-30T13:21:46;0.80;;;0.80;;
20865;SDS011;10593;48.398;10.698;2022-07-30T13:24:12;1.03;;;1.00;;
20865;SDS011;10593;48.398;10.698;2022-07-30T13:26:38;1.50;;;1.07;;
20865;SDS011;10593;48.398;10.698;2022-07-30T13:29:04;1.33;;;1.00;;
20865;SDS011;10593;48.398;10.698;2022-07-30T13:31:30;1.27;;;1.17;;
20865;SDS011;10593;48.398;10.698;2022-07-30T13:33:56;3.00;;;1.40;;
20865;SDS011;10593;48.398;10.698;2022-07-30T13:36:22;1.70;;;1.13;;
20865;SDS011;10593;48.398;10.698;2022-07-30T13:38:47;1.03;;;0.97;;
20865;SDS011;10593;48.398;10.698;2022-07-30T13:41:13;1.50;;;1.40;;
20865;SDS011;10593;48.398;10.698;2022-07-30T13:43:41;1.70;;;1.20;;
20865;SDS011;10593;48.398;10.698;2022-07-30T13:46:07;0.90;;;0.90;;
20865;SDS011;10593;48.398;10.698;2022-07-30T13:48:32;1.73;;;1.20;;
20865;SDS011;10593;48.398;10.698;2022-07-30T13:51:02;2.30;;;1.00;;
20865;SDS011;10593;48.398;10.698;2022-07-30T13:53:29;1.07;;;1.00;;
20865;SDS011;10593;48.398;10.698;2022-07-30T13:55:55;0.90;;;0.90;;
20865;SDS011;10593;48.398;10.698;2022-07-30T13:58:23;1.80;;;1.07;;
20865;SDS011;10593;48.398;10.698;2022-07-30T14:00:49;1.53;;;1.20;;
20865;SDS011;10593;48.398;10.698;2022-07-30T14:03:15;0.80;;;0.80;;
20865;SDS011;10593;48.398;10.698;2022-07-30T14:05:41;0.70;;;0.70;;
20865;SDS011;10593;48.398;10.698;2022-07-30T14:08:07;0.80;;;0.80;;
20865;SDS011;10593;48.398;10.698;2022-07-30T14:10:35;0.90;;;0.90;;
20865;SDS011;10593;48.398;10.698;2022-07-30T14:13:03;1.10;;;1.10;;
20865;SDS011;10593;48.398;10.698;2022-07-30T14:15:31;1.17;;;0.80;;
20865;SDS011;10593;48.398;10.698;2022-07-30T14:17:58;0.87;;;0.87;;
20865;SDS011;10593;48.398;10.698;2022-07-30T14:20:25;1.23;;;1.13;;
20865;SDS011;10593;48.398;10.698;2022-07-30T14:22:51;1.17;;;0.90;;
20865;SDS011;10593;48.398;10.698;2022-07-30T14:25:17;0.80;;;0.80;;
20865;SDS011;10593;48.398;10.698;2022-07-30T14:27:43;1.40;;;0.83;;
20865;SDS011;10593;48.398;10.698;2022-07-30T14:30:10;1.03;;;1.03;;
20865;SDS011;10593;48.398;10.698;2022-07-30T14:32:36;2.97;;;1.20;;
20865;SDS011;10593;48.398;10.698;2022-07-30T14:35:04;1.00;;;1.00;;
20865;SDS011;10593;48.398;10.698;2022-07-30T14:37:35;1.07;;;0.97;;
20865;SDS011;10593;48.398;10.698;2022-07-30T14:40:02;1.10;;;1.10;;
20865;SDS011;10593;48.398;10.698;2022-07-30T14:42:30;1.00;;;0.97;;
20865;SDS011;10593;48.398;10.698;2022-07-30T14:44:55;1.10;;;1.00;;
20865;SDS011;10593;48.398;10.698;2022-07-30T14:47:21;1.10;;;0.97;;
20865;SDS011;10593;48.398;10.698;2022-07-30T14:49:47;0.67;;;0.67;;
20865;SDS011;10593;48.398;10.698;2022-07-30T14:52:12;1.43;;;1.07;;
20865;SDS011;10593;48.398;10.698;2022-07-30T14:54:38;2.50;;;1.10;;
20865;SDS011;10593;48.398;10.698;2022-07-30T14:57:04;1.50;;;1.20;;
20865;SDS011;10593;48.398;10.698;2022-07-30T14:59:32;1.10;;;1.00;;
20865;SDS011;10593;48.398;10.698;2022-07-30T15:01:58;3.17;;;1.20;;
20865;SDS011;10593;48.398;10.698;2022-07-30T15:04:23;0.90;;;0.90;;
20865;SDS011;10593;48.398;10.698;2022-07-30T15:06:49;1.20;;;1.10;;
20865;SDS011;10593;48.398;10.698;2022-07-30T15:09:15;1.10;;;1.10;;
20865;SDS011;10593;48.398;10.698;2022-07-30T15:11:41;1.10;;;0.70;;
20865;SDS011;10593;48.398;10.698;2022-07-30T15:14:06;0.90;;;0.90;;
20865;SDS011;10593;48.398;10.698;2022-07-30T15:16:32;1.33;;;1.00;;
20865;SDS011;10593;48.398;10.698;2022-07-30T15:18:58;0.90;;;0.70;;
20865;SDS011;10593;48.398;10.698;2022-07-30T15:21:24;2.10;;;1.10;;
20865;SDS011;10593;48.398;10.698;2022-07-30T15:23:50;1.07;;;0.97;;
20865;SDS011;10593;48.398;10.698;2022-07-30T15:26:16;1.30;;;1.20;;